<?xml version="1.0" encoding="UTF-8" standalone="no" ?>
<gpx xmlns="http://www.topografix.com/GPX/1/1" xmlns:xsi="http://www.w3.org/2001/XMLSchema-instance" xsi:schemaLocation="http://www.topografix.com/GPX/1/1 http://www.topografix.com/GPX/1/1/gpx.xsd" version="1.1" creator="VisuGPX - https://www.visugpx.com">
  <metadata>
    <name>14891253-boissy chars par moussy</name>
    <desc><![CDATA[Détaisl sur [url]http:/[/url]/trekkingzone.fr
]]></desc>
  </metadata>
  <trk>
    <name><![CDATA[14891253-boissy chars par moussy]]></name>
    <trkseg>
      <trkpt lat="49.07574" lon="2.02508">
        <ele>41</ele>
        <time>2022-09-24T12:29:30Z</time>
      </trkpt>
      <trkpt lat="49.07612" lon="2.02514">
        <ele>43</ele>
        <time>2022-09-24T12:30:01Z</time>
      </trkpt>
      <trkpt lat="49.07633" lon="2.02526">
        <ele>44</ele>
        <time>2022-09-24T12:30:19Z</time>
      </trkpt>
      <trkpt lat="49.07617" lon="2.02382">
        <ele>46</ele>
        <time>2022-09-24T12:31:35Z</time>
      </trkpt>
      <trkpt lat="49.07648" lon="2.02211">
        <ele>49</ele>
        <time>2022-09-24T12:33:08Z</time>
      </trkpt>
      <trkpt lat="49.07617" lon="2.02217">
        <ele>48</ele>
        <time>2022-09-24T12:33:33Z</time>
      </trkpt>
      <trkpt lat="49.07583" lon="2.02212">
        <ele>47</ele>
        <time>2022-09-24T12:34:01Z</time>
      </trkpt>
      <trkpt lat="49.07545" lon="2.02156">
        <ele>49</ele>
        <time>2022-09-24T12:34:43Z</time>
      </trkpt>
      <trkpt lat="49.07557" lon="2.02071">
        <ele>51</ele>
        <time>2022-09-24T12:35:28Z</time>
      </trkpt>
      <trkpt lat="49.07522" lon="2.02024">
        <ele>55</ele>
        <time>2022-09-24T12:36:06Z</time>
      </trkpt>
      <trkpt lat="49.07574" lon="2.01906">
        <ele>54</ele>
        <time>2022-09-24T12:37:20Z</time>
      </trkpt>
      <trkpt lat="49.07648" lon="2.01805">
        <ele>49</ele>
        <time>2022-09-24T12:38:40Z</time>
      </trkpt>
      <trkpt lat="49.07699" lon="2.01668">
        <ele>49</ele>
        <time>2022-09-24T12:40:03Z</time>
      </trkpt>
      <trkpt lat="49.07734" lon="2.01612">
        <ele>47</ele>
        <time>2022-09-24T12:40:43Z</time>
      </trkpt>
      <trkpt lat="49.07775" lon="2.0147">
        <ele>47</ele>
        <time>2022-09-24T12:42:04Z</time>
      </trkpt>
      <trkpt lat="49.07749" lon="2.01245">
        <ele>45</ele>
        <time>2022-09-24T12:44:04Z</time>
      </trkpt>
      <trkpt lat="49.07849" lon="2.00848">
        <ele>44</ele>
        <time>2022-09-24T12:47:47Z</time>
      </trkpt>
      <trkpt lat="49.07888" lon="2.00827">
        <ele>45</ele>
        <time>2022-09-24T12:48:21Z</time>
      </trkpt>
      <trkpt lat="49.07921" lon="2.00621">
        <ele>43</ele>
        <time>2022-09-24T12:50:12Z</time>
      </trkpt>
      <trkpt lat="49.07959" lon="2.00627">
        <ele>44</ele>
        <time>2022-09-24T12:50:42Z</time>
      </trkpt>
      <trkpt lat="49.07977" lon="2.00531">
        <ele>43</ele>
        <time>2022-09-24T12:51:35Z</time>
      </trkpt>
      <trkpt lat="49.08002" lon="2.00355">
        <ele>41</ele>
        <time>2022-09-24T12:53:09Z</time>
      </trkpt>
      <trkpt lat="49.07914" lon="2.00277">
        <ele>45</ele>
        <time>2022-09-24T12:54:31Z</time>
      </trkpt>
      <trkpt lat="49.07756" lon="2.00374">
        <ele>45</ele>
        <time>2022-09-24T12:56:47Z</time>
      </trkpt>
      <trkpt lat="49.07775" lon="2.00275">
        <ele>50</ele>
        <time>2022-09-24T12:57:41Z</time>
      </trkpt>
      <trkpt lat="49.07768" lon="2.00185">
        <ele>53</ele>
        <time>2022-09-24T12:58:29Z</time>
      </trkpt>
      <trkpt lat="49.07866" lon="2.0008">
        <ele>59</ele>
        <time>2022-09-24T13:00:04Z</time>
      </trkpt>
      <trkpt lat="49.07976" lon="1.99715">
        <ele>73</ele>
        <time>2022-09-24T13:03:35Z</time>
      </trkpt>
      <trkpt lat="49.07966" lon="1.99591">
        <ele>75</ele>
        <time>2022-09-24T13:04:41Z</time>
      </trkpt>
      <trkpt lat="49.07775" lon="1.99">
        <ele>94</ele>
        <time>2022-09-24T13:10:26Z</time>
      </trkpt>
      <trkpt lat="49.07752" lon="1.9885">
        <ele>92</ele>
        <time>2022-09-24T13:11:47Z</time>
      </trkpt>
      <trkpt lat="49.07694" lon="1.98698">
        <ele>92</ele>
        <time>2022-09-24T13:13:19Z</time>
      </trkpt>
      <trkpt lat="49.0777" lon="1.98556">
        <ele>88</ele>
        <time>2022-09-24T13:14:56Z</time>
      </trkpt>
      <trkpt lat="49.07821" lon="1.9858">
        <ele>87</ele>
        <time>2022-09-24T13:15:38Z</time>
      </trkpt>
      <trkpt lat="49.07998" lon="1.98011">
        <ele>89</ele>
        <time>2022-09-24T13:21:09Z</time>
      </trkpt>
      <trkpt lat="49.08399" lon="1.97011">
        <ele>100</ele>
        <time>2022-09-24T13:31:24Z</time>
      </trkpt>
      <trkpt lat="49.08514" lon="1.96739">
        <ele>91</ele>
        <time>2022-09-24T13:34:13Z</time>
      </trkpt>
      <trkpt lat="49.08618" lon="1.96696">
        <ele>88</ele>
        <time>2022-09-24T13:35:40Z</time>
      </trkpt>
      <trkpt lat="49.0875" lon="1.96715">
        <ele>84</ele>
        <time>2022-09-24T13:37:26Z</time>
      </trkpt>
      <trkpt lat="49.08758" lon="1.96524">
        <ele>92</ele>
        <time>2022-09-24T13:39:06Z</time>
      </trkpt>
      <trkpt lat="49.08704" lon="1.96271">
        <ele>102</ele>
        <time>2022-09-24T13:41:26Z</time>
      </trkpt>
      <trkpt lat="49.08917" lon="1.95833">
        <ele>95</ele>
        <time>2022-09-24T13:46:12Z</time>
      </trkpt>
      <trkpt lat="49.08902" lon="1.95737">
        <ele>93</ele>
        <time>2022-09-24T13:47:03Z</time>
      </trkpt>
      <trkpt lat="49.08809" lon="1.95647">
        <ele>93</ele>
        <time>2022-09-24T13:48:32Z</time>
      </trkpt>
      <trkpt lat="49.0891" lon="1.95561">
        <ele>93</ele>
        <time>2022-09-24T13:50:04Z</time>
      </trkpt>
      <trkpt lat="49.09011" lon="1.94836">
        <ele>96</ele>
        <time>2022-09-24T13:56:33Z</time>
      </trkpt>
      <trkpt lat="49.09103" lon="1.94859">
        <ele>93</ele>
        <time>2022-09-24T13:57:48Z</time>
      </trkpt>
      <trkpt lat="49.09249" lon="1.949">
        <ele>98</ele>
        <time>2022-09-24T13:59:46Z</time>
      </trkpt>
      <trkpt lat="49.09341" lon="1.94838">
        <ele>104</ele>
        <time>2022-09-24T14:01:07Z</time>
      </trkpt>
      <trkpt lat="49.09785" lon="1.93767">
        <ele>107</ele>
        <time>2022-09-24T14:12:11Z</time>
      </trkpt>
      <trkpt lat="49.10269" lon="1.926">
        <ele>102</ele>
        <time>2022-09-24T14:24:16Z</time>
      </trkpt>
      <trkpt lat="49.10373" lon="1.92645">
        <ele>101</ele>
        <time>2022-09-24T14:25:42Z</time>
      </trkpt>
      <trkpt lat="49.1072" lon="1.92694">
        <ele>97</ele>
        <time>2022-09-24T14:30:21Z</time>
      </trkpt>
      <trkpt lat="49.10925" lon="1.92855">
        <ele>101</ele>
        <time>2022-09-24T14:33:26Z</time>
      </trkpt>
      <trkpt lat="49.1102" lon="1.9304">
        <ele>98</ele>
        <time>2022-09-24T14:35:29Z</time>
      </trkpt>
      <trkpt lat="49.11158" lon="1.93261">
        <ele>96</ele>
        <time>2022-09-24T14:38:09Z</time>
      </trkpt>
      <trkpt lat="49.11064" lon="1.93452">
        <ele>95</ele>
        <time>2022-09-24T14:40:14Z</time>
      </trkpt>
      <trkpt lat="49.11047" lon="1.93548">
        <ele>91</ele>
        <time>2022-09-24T14:41:07Z</time>
      </trkpt>
      <trkpt lat="49.11095" lon="1.93681">
        <ele>85</ele>
        <time>2022-09-24T14:42:26Z</time>
      </trkpt>
      <trkpt lat="49.11223" lon="1.93831">
        <ele>70</ele>
        <time>2022-09-24T14:44:35Z</time>
      </trkpt>
      <trkpt lat="49.11363" lon="1.94018">
        <ele>69</ele>
        <time>2022-09-24T14:47:04Z</time>
      </trkpt>
      <trkpt lat="49.11463" lon="1.9446">
        <ele>65</ele>
        <time>2022-09-24T14:51:09Z</time>
      </trkpt>
      <trkpt lat="49.11627" lon="1.94649">
        <ele>62</ele>
        <time>2022-09-24T14:53:54Z</time>
      </trkpt>
      <trkpt lat="49.11746" lon="1.94728">
        <ele>64</ele>
        <time>2022-09-24T14:55:38Z</time>
      </trkpt>
      <trkpt lat="49.11867" lon="1.94857">
        <ele>64</ele>
        <time>2022-09-24T14:57:36Z</time>
      </trkpt>
      <trkpt lat="49.11951" lon="1.94836">
        <ele>66</ele>
        <time>2022-09-24T14:58:44Z</time>
      </trkpt>
      <trkpt lat="49.12023" lon="1.94561">
        <ele>65</ele>
        <time>2022-09-24T15:01:19Z</time>
      </trkpt>
      <trkpt lat="49.12025" lon="1.94419">
        <ele>68</ele>
        <time>2022-09-24T15:02:34Z</time>
      </trkpt>
      <trkpt lat="49.12189" lon="1.94052">
        <ele>65</ele>
        <time>2022-09-24T15:06:26Z</time>
      </trkpt>
      <trkpt lat="49.12326" lon="1.94007">
        <ele>65</ele>
        <time>2022-09-24T15:08:19Z</time>
      </trkpt>
      <trkpt lat="49.12363" lon="1.93842">
        <ele>67</ele>
        <time>2022-09-24T15:09:50Z</time>
      </trkpt>
      <trkpt lat="49.12491" lon="1.93737">
        <ele>61</ele>
        <time>2022-09-24T15:11:46Z</time>
      </trkpt>
      <trkpt lat="49.12619" lon="1.9387">
        <ele>58</ele>
        <time>2022-09-24T15:13:50Z</time>
      </trkpt>
      <trkpt lat="49.12689" lon="1.93864">
        <ele>63</ele>
        <time>2022-09-24T15:14:46Z</time>
      </trkpt>
      <trkpt lat="49.12749" lon="1.93767">
        <ele>64</ele>
        <time>2022-09-24T15:15:56Z</time>
      </trkpt>
      <trkpt lat="49.13029" lon="1.93731">
        <ele>81</ele>
        <time>2022-09-24T15:19:41Z</time>
      </trkpt>
      <trkpt lat="49.13107" lon="1.93636">
        <ele>81</ele>
        <time>2022-09-24T15:21:01Z</time>
      </trkpt>
      <trkpt lat="49.13245" lon="1.93301">
        <ele>87</ele>
        <time>2022-09-24T15:24:29Z</time>
      </trkpt>
      <trkpt lat="49.13235" lon="1.93177">
        <ele>78</ele>
        <time>2022-09-24T15:25:34Z</time>
      </trkpt>
      <trkpt lat="49.13364" lon="1.93089">
        <ele>77</ele>
        <time>2022-09-24T15:27:27Z</time>
      </trkpt>
      <trkpt lat="49.13437" lon="1.9296">
        <ele>73</ele>
        <time>2022-09-24T15:28:56Z</time>
      </trkpt>
      <trkpt lat="49.1351" lon="1.926">
        <ele>74</ele>
        <time>2022-09-24T15:32:14Z</time>
      </trkpt>
      <trkpt lat="49.13601" lon="1.92359">
        <ele>76</ele>
        <time>2022-09-24T15:34:40Z</time>
      </trkpt>
      <trkpt lat="49.13715" lon="1.92042">
        <ele>76</ele>
        <time>2022-09-24T15:37:49Z</time>
      </trkpt>
      <trkpt lat="49.13986" lon="1.91879">
        <ele>80</ele>
        <time>2022-09-24T15:41:42Z</time>
      </trkpt>
      <trkpt lat="49.14098" lon="1.9172">
        <ele>82</ele>
        <time>2022-09-24T15:43:45Z</time>
      </trkpt>
      <trkpt lat="49.14154" lon="1.91535">
        <ele>80</ele>
        <time>2022-09-24T15:45:32Z</time>
      </trkpt>
      <trkpt lat="49.14168" lon="1.91372">
        <ele>81</ele>
        <time>2022-09-24T15:46:58Z</time>
      </trkpt>
      <trkpt lat="49.14081" lon="1.91304">
        <ele>75</ele>
        <time>2022-09-24T15:48:16Z</time>
      </trkpt>
      <trkpt lat="49.13966" lon="1.91003">
        <ele>83</ele>
        <time>2022-09-24T15:51:18Z</time>
      </trkpt>
      <trkpt lat="49.13846" lon="1.90784">
        <ele>88</ele>
        <time>2022-09-24T15:53:48Z</time>
      </trkpt>
      <trkpt lat="49.13787" lon="1.9086">
        <ele>96</ele>
        <time>2022-09-24T15:54:50Z</time>
      </trkpt>
      <trkpt lat="49.13738" lon="1.90628">
        <ele>96</ele>
        <time>2022-09-24T15:56:58Z</time>
      </trkpt>
      <trkpt lat="49.13823" lon="1.90557">
        <ele>86</ele>
        <time>2022-09-24T15:58:15Z</time>
      </trkpt>
      <trkpt lat="49.13951" lon="1.90484">
        <ele>96</ele>
        <time>2022-09-24T16:00:05Z</time>
      </trkpt>
      <trkpt lat="49.14101" lon="1.90866">
        <ele>93</ele>
        <time>2022-09-24T16:03:58Z</time>
      </trkpt>
      <trkpt lat="49.14295" lon="1.91158">
        <ele>91</ele>
        <time>2022-09-24T16:07:36Z</time>
      </trkpt>
      <trkpt lat="49.14538" lon="1.91463">
        <ele>94</ele>
        <time>2022-09-24T16:11:48Z</time>
      </trkpt>
      <trkpt lat="49.14663" lon="1.91763">
        <ele>92</ele>
        <time>2022-09-24T16:14:54Z</time>
      </trkpt>
      <trkpt lat="49.14754" lon="1.91924">
        <ele>89</ele>
        <time>2022-09-24T16:16:45Z</time>
      </trkpt>
      <trkpt lat="49.1478" lon="1.92054">
        <ele>88</ele>
        <time>2022-09-24T16:17:57Z</time>
      </trkpt>
      <trkpt lat="49.14732" lon="1.9208">
        <ele>87</ele>
        <time>2022-09-24T16:18:37Z</time>
      </trkpt>
      <trkpt lat="49.14685" lon="1.9234">
        <ele>84</ele>
        <time>2022-09-24T16:20:59Z</time>
      </trkpt>
      <trkpt lat="49.14645" lon="1.9253">
        <ele>80</ele>
        <time>2022-09-24T16:22:43Z</time>
      </trkpt>
      <trkpt lat="49.14629" lon="1.92795">
        <ele>76</ele>
        <time>2022-09-24T16:25:03Z</time>
      </trkpt>
      <trkpt lat="49.14647" lon="1.9302">
        <ele>75</ele>
        <time>2022-09-24T16:27:01Z</time>
      </trkpt>
      <trkpt lat="49.14625" lon="1.9313">
        <ele>73</ele>
        <time>2022-09-24T16:28:02Z</time>
      </trkpt>
      <trkpt lat="49.1455" lon="1.93335">
        <ele>68</ele>
        <time>2022-09-24T16:30:05Z</time>
      </trkpt>
      <trkpt lat="49.1452" lon="1.93471">
        <ele>65</ele>
        <time>2022-09-24T16:31:20Z</time>
      </trkpt>
      <trkpt lat="49.14551" lon="1.9354">
        <ele>65</ele>
        <time>2022-09-24T16:32:04Z</time>
      </trkpt>
      <trkpt lat="49.14656" lon="1.93612">
        <ele>64</ele>
        <time>2022-09-24T16:33:36Z</time>
      </trkpt>
      <trkpt lat="49.14755" lon="1.93568">
        <ele>73</ele>
        <time>2022-09-24T16:34:58Z</time>
      </trkpt>
      <trkpt lat="49.14795" lon="1.93527">
        <ele>78</ele>
        <time>2022-09-24T16:35:37Z</time>
      </trkpt>
      <trkpt lat="49.14911" lon="1.93497">
        <ele>83</ele>
        <time>2022-09-24T16:37:11Z</time>
      </trkpt>
      <trkpt lat="49.15017" lon="1.93544">
        <ele>85</ele>
        <time>2022-09-24T16:38:39Z</time>
      </trkpt>
      <trkpt lat="49.15075" lon="1.93543">
        <ele>89</ele>
        <time>2022-09-24T16:39:26Z</time>
      </trkpt>
      <trkpt lat="49.15128" lon="1.93583">
        <ele>89</ele>
        <time>2022-09-24T16:40:13Z</time>
      </trkpt>
      <trkpt lat="49.15277" lon="1.93503">
        <ele>90</ele>
        <time>2022-09-24T16:42:20Z</time>
      </trkpt>
      <trkpt lat="49.154" lon="1.93483">
        <ele>88</ele>
        <time>2022-09-24T16:43:59Z</time>
      </trkpt>
      <trkpt lat="49.15477" lon="1.93402">
        <ele>89</ele>
        <time>2022-09-24T16:45:13Z</time>
      </trkpt>
      <trkpt lat="49.15524" lon="1.93375">
        <ele>88</ele>
        <time>2022-09-24T16:45:54Z</time>
      </trkpt>
      <trkpt lat="49.15614" lon="1.93378">
        <ele>82</ele>
        <time>2022-09-24T16:47:06Z</time>
      </trkpt>
      <trkpt lat="49.15697" lon="1.93397">
        <ele>77</ele>
        <time>2022-09-24T16:48:13Z</time>
      </trkpt>
      <trkpt lat="49.15742" lon="1.93434">
        <ele>72</ele>
        <time>2022-09-24T16:48:54Z</time>
      </trkpt>
      <trkpt lat="49.15836" lon="1.93465">
        <ele>68</ele>
        <time>2022-09-24T16:50:11Z</time>
      </trkpt>
      <trkpt lat="49.15866" lon="1.93543">
        <ele>62</ele>
        <time>2022-09-24T16:50:58Z</time>
      </trkpt>
      <trkpt lat="49.15877" lon="1.93628">
        <ele>62</ele>
        <time>2022-09-24T16:51:44Z</time>
      </trkpt>
      <trkpt lat="49.15908" lon="1.93634">
        <ele>63</ele>
        <time>2022-09-24T16:52:09Z</time>
      </trkpt>
      <trkpt lat="49.16022" lon="1.93634">
        <ele>65</ele>
        <time>2022-09-24T16:53:40Z</time>
      </trkpt>
      <trkpt lat="49.16031" lon="1.93547">
        <ele>67</ele>
        <time>2022-09-24T16:54:26Z</time>
      </trkpt>
      <trkpt lat="49.16149" lon="1.9365">
        <ele>66</ele>
        <time>2022-09-24T16:56:15Z</time>
      </trkpt>
      <trkpt lat="49.16271" lon="1.93679">
        <ele>65</ele>
        <time>2022-09-24T16:57:54Z</time>
      </trkpt>
    </trkseg>
  </trk>
</gpx>